Time;durP1;ratioP1;P1;durP2;ratioP2;P2;SDS_P1;SDS_P2;PMS_P1;PMS_P2;Temp;Humidity;BMP_temperature;BMP_pressure;BME280_temperature;BME280_humidity;BME280_pressure;Samples;Min_cycle;Max_cycle;Signal;HPM_P1;HPM_P2
2023/10/20 00:00:06;;;;;;;6.47;5.07;;;;;;;11.90;61.68;93068.97;529036;27;1097;-44
2023/10/20 00:00:21;;;;;;;7.53;5.00;;;;;;;11.86;61.79;93065.88;528135;28;889;-46
2023/10/20 00:00:37;;;;;;;8.05;5.50;;;;;;;11.88;61.73;93072.31;528072;28;865;-44
2023/10/20 00:00:52;;;;;;;10.63;5.70;;;;;;;11.91;61.82;93062.16;528410;28;881;-46
2023/10/20 00:01:07;;;;;;;12.13;5.00;;;;;;;11.89;61.84;93073.75;528458;28;871;-45
2023/10/20 00:01:23;;;;;;;8.93;4.70;;;;;;;11.89;61.67;93068.22;528575;28;868;-45
2023/10/20 00:01:38;;;;;;;7.10;5.07;;;;;;;11.89;61.63;93065.47;528437;28;889;-47
2023/10/20 00:01:54;;;;;;;9.07;5.93;;;;;;;11.89;61.64;93071.00;528512;28;790;-45
2023/10/20 00:02:09;;;;;;;9.70;6.18;;;;;;;11.87;62.01;93065.31;528519;28;880;-46
2023/10/20 00:02:27;;;;;;;8.03;5.60;;;;;;;11.88;61.81;93069.56;528517;28;833;-45
2023/10/20 00:02:43;;;;;;;6.50;5.32;;;;;;;11.87;61.81;93067.31;528461;28;1047;-45
2023/10/20 00:02:58;;;;;;;6.18;4.88;;;;;;;11.82;61.75;93063.53;528474;28;798;-45
2023/10/20 00:03:13;;;;;;;7.37;5.07;;;;;;;11.87;61.96;93064.56;528474;28;892;-45
2023/10/20 00:03:29;;;;;;;7.00;4.70;;;;;;;11.83;61.69;93064.22;528488;28;809;-46
2023/10/20 00:03:45;;;;;;;6.35;4.00;;;;;;;11.85;61.91;93065.13;528427;28;1113;-46
2023/10/20 00:04:03;;;;;;;6.70;3.87;;;;;;;11.84;61.80;93066.44;528554;28;892;-46
2023/10/20 00:04:18;;;;;;;4.22;3.28;;;;;;;11.80;61.77;93066.09;528429;28;932;-45
2023/10/20 00:04:34;;;;;;;3.93;3.07;;;;;;;11.83;61.75;93076.03;528531;28;841;-45
2023/10/20 00:04:49;;;;;;;4.45;3.28;;;;;;;11.82;61.87;93076.63;528461;28;828;-45
2023/10/20 00:05:05;;;;;;;4.10;3.23;;;;;;;11.77;61.98;93070.00;528375;28;892;-45
2023/10/20 00:05:20;;;;;;;4.70;3.45;;;;;;;11.81;61.86;93073.09;528555;28;865;-45
2023/10/20 00:05:36;;;;;;;4.40;3.40;;;;;;;11.81;62.13;93072.38;528493;28;948;-46
2023/10/20 00:05:51;;;;;;;3.53;3.20;;;;;;;11.81;62.29;93075.13;528514;28;840;-46
2023/10/20 00:06:06;;;;;;;3.33;3.03;;;;;;;11.80;62.06;93073.69;528426;28;935;-46
2023/10/20 00:06:22;;;;;;;3.90;3.00;;;;;;;11.79;62.41;93072.94;528559;28;837;-46
2023/10/20 00:06:39;;;;;;;3.97;3.33;;;;;;;11.80;62.22;93076.44;528476;28;822;-45
2023/10/20 00:06:54;;;;;;;4.47;3.60;;;;;;;11.80;62.43;93071.63;528494;28;848;-45
2023/10/20 00:07:10;;;;;;;4.28;3.50;;;;;;;11.77;62.32;93066.50;528477;28;786;-45
2023/10/20 00:07:26;;;;;;;3.28;2.97;;;;;;;11.79;62.35;93072.94;528431;28;868;-45
2023/10/20 00:07:42;;;;;;;3.28;2.80;;;;;;;11.80;62.35;93076.44;528504;28;1047;-45
2023/10/20 00:07:57;;;;;;;3.63;3.27;;;;;;;11.78;62.49;93065.22;528447;28;852;-45
2023/10/20 00:08:13;;;;;;;3.50;3.20;;;;;;;11.78;62.42;93068.69;528401;28;837;-46
2023/10/20 00:08:28;;;;;;;4.13;3.10;;;;;;;11.78;62.61;93074.22;528494;28;918;-45
2023/10/20 00:08:44;;;;;;;6.23;3.50;;;;;;;11.78;62.67;93071.47;528537;28;785;-46
2023/10/20 00:08:59;;;;;;;5.68;3.55;;;;;;;11.78;62.43;93067.97;528450;28;1728;-46
2023/10/20 00:09:15;;;;;;;3.87;3.37;;;;;;;11.77;62.71;93069.25;528450;28;841;-45
2023/10/20 00:09:30;;;;;;;4.30;3.60;;;;;;;11.75;62.76;93069.84;528531;28;1516;-45
2023/10/20 00:09:46;;;;;;;4.53;3.57;;;;;;;11.77;62.75;93072.03;528424;28;929;-45
2023/10/20 00:10:03;;;;;;;3.97;3.17;;;;;;;11.77;62.79;93069.25;528446;28;1125;-45
2023/10/20 00:10:19;;;;;;;3.28;2.97;;;;;;;11.72;62.64;93062.66;528490;28;903;-45
2023/10/20 00:10:37;;;;;;;4.27;2.90;;;;;;;11.76;62.68;93065.75;528437;28;879;-45
2023/10/20 00:10:57;;;;;;;5.90;2.95;;;;;;;11.76;62.84;93070.59;528531;28;829;-45
2023/10/20 00:11:12;;;;;;;4.40;3.22;;;;;;;11.77;62.69;93072.78;528485;28;916;-46
2023/10/20 00:11:28;;;;;;;3.72;3.30;;;;;;;11.76;62.77;93068.53;528400;28;1532;-45
2023/10/20 00:11:45;;;;;;;3.73;3.30;;;;;;;11.77;62.82;93067.25;528524;28;904;-46
2023/10/20 00:12:00;;;;;;;4.30;3.25;;;;;;;11.77;62.73;93072.03;528496;28;1091;-45
2023/10/20 00:12:16;;;;;;;4.00;3.35;;;;;;;11.77;62.45;93066.50;528392;28;874;-46
2023/10/20 00:12:31;;;;;;;4.13;3.60;;;;;;;11.75;62.80;93067.06;528483;28;916;-46
2023/10/20 00:12:46;;;;;;;4.32;3.67;;;;;;;11.73;62.71;93071.69;528475;28;841;-44
2023/10/20 00:13:03;;;;;;;3.93;3.47;;;;;;;11.75;62.83;93074.63;528488;28;871;-45
2023/10/20 00:13:18;;;;;;;4.30;3.47;;;;;;;11.74;62.96;93073.91;528451;28;842;-45
2023/10/20 00:13:34;;;;;;;4.75;3.55;;;;;;;11.67;62.59;93062.91;528462;28;900;-45
2023/10/20 00:13:49;;;;;;;4.23;3.40;;;;;;;11.74;62.90;93084.22;528463;28;853;-45
2023/10/20 00:14:05;;;;;;;4.13;3.30;;;;;;;11.73;62.63;93077.97;528423;28;797;-45
2023/10/20 00:14:20;;;;;;;3.63;3.30;;;;;;;11.72;62.87;93073.72;528439;28;907;-46
2023/10/20 00:14:36;;;;;;;3.72;3.42;;;;;;;11.73;62.81;93075.22;528467;28;829;-46
2023/10/20 00:14:51;;;;;;;4.07;3.50;;;;;;;11.73;63.05;93077.97;528426;28;1052;-46
2023/10/20 00:15:09;;;;;;;5.33;3.60;;;;;;;11.74;63.11;93075.91;528313;28;929;-45
2023/10/20 00:15:25;;;;;;;4.45;3.42;;;;;;;11.71;62.91;93075.03;528405;28;937;-45
2023/10/20 00:15:44;;;;;;;4.05;3.58;;;;;;;11.74;62.58;93076.66;528504;28;869;-45
2023/10/20 00:15:59;;;;;;;4.25;3.60;;;;;;;11.73;62.77;93074.47;528495;28;841;-45
2023/10/20 00:16:23;;;;;;;4.70;3.75;;;;;;;11.71;62.89;93074.31;526114;28;873;-45
2023/10/20 00:16:39;;;;;;;4.38;3.50;;;;;;;11.71;62.68;93066.00;526142;28;888;-45
2023/10/20 00:16:54;;;;;;;4.25;3.55;;;;;;;11.71;62.38;93072.28;526133;28;1910;-45
2023/10/20 00:17:09;;;;;;;5.70;3.63;;;;;;;11.69;62.30;93074.88;526269;28;805;-45
2023/10/20 00:17:25;;;;;;;5.47;3.60;;;;;;;11.70;62.11;93067.28;526169;28;956;-44
2023/10/20 00:17:41;;;;;;;4.53;3.60;;;;;;;11.71;61.97;93063.97;526197;28;974;-45
2023/10/20 00:17:56;;;;;;;4.22;3.40;;;;;;;11.68;62.17;93065.09;526075;28;865;-46
2023/10/20 00:18:13;;;;;;;4.00;3.45;;;;;;;11.71;61.94;93069.50;527982;28;881;-45
2023/10/20 00:18:28;;;;;;;3.80;3.25;;;;;;;11.71;61.94;93060.47;528414;28;1199;-46
2023/10/20 00:18:44;;;;;;;3.40;3.10;;;;;;;11.72;62.20;93064.69;528520;28;875;-45
2023/10/20 00:19:02;;;;;;;3.80;3.40;;;;;;;11.71;61.75;93058.44;528457;28;1022;-45
2023/10/20 00:19:18;;;;;;;3.53;3.22;;;;;;;11.72;62.17;93065.44;528372;28;892;-46
2023/10/20 00:19:34;;;;;;;4.05;3.47;;;;;;;11.71;62.18;93063.25;528508;28;837;-45
2023/10/20 00:19:49;;;;;;;5.15;3.75;;;;;;;11.71;61.92;93058.44;528401;28;1156;-45
2023/10/20 00:20:05;;;;;;;4.40;3.60;;;;;;;11.72;61.98;93061.94;528307;28;885;-45
2023/10/20 00:20:20;;;;;;;4.45;3.60;;;;;;;11.72;62.19;93061.94;528505;28;797;-45
2023/10/20 00:20:35;;;;;;;4.87;3.60;;;;;;;11.64;62.22;93045.38;528479;28;767;-46
2023/10/20 00:20:51;;;;;;;4.32;3.42;;;;;;;11.71;61.98;93052.91;528565;28;821;-46
2023/10/20 00:21:06;;;;;;;4.63;3.23;;;;;;;11.71;62.18;93063.97;528342;28;900;-46
2023/10/20 00:21:24;;;;;;;4.25;3.17;;;;;;;11.71;61.98;93054.94;528484;28;940;-45
2023/10/20 00:21:39;;;;;;;3.85;3.20;;;;;;;11.69;62.22;93057.53;528478;28;939;-45
2023/10/20 00:21:55;;;;;;;7.50;3.57;;;;;;;11.69;62.25;93063.81;528335;28;956;-45
2023/10/20 00:22:11;;;;;;;8.18;3.55;;;;;;;11.69;62.05;93063.81;528458;28;917;-45
2023/10/20 00:22:26;;;;;;;4.60;3.35;;;;;;;11.68;62.17;93067.13;528425;28;882;-46
2023/10/20 00:22:41;;;;;;;5.83;3.43;;;;;;;11.66;62.34;93062.13;528454;28;1526;-45
2023/10/20 00:22:57;;;;;;;5.53;3.33;;;;;;;11.65;62.41;93060.66;528443;28;856;-45
2023/10/20 00:23:14;;;;;;;4.63;3.58;;;;;;;11.66;62.22;93062.13;528498;28;794;-44
2023/10/20 00:23:30;;;;;;;5.32;3.45;;;;;;;11.66;62.26;93061.41;528460;28;909;-44
2023/10/20 00:23:45;;;;;;;5.43;3.17;;;;;;;11.62;62.43;93056.28;529126;27;1161;-45
2023/10/20 00:24:01;;;;;;;4.47;3.42;;;;;;;11.66;62.57;93067.66;529074;27;1077;-45
2023/10/20 00:24:16;;;;;;;4.10;3.70;;;;;;;11.41;62.73;93028.25;528428;28;1261;-46
2023/10/20 00:24:31;;;;;;;5.20;3.83;;;;;;;11.65;62.40;93066.19;530613;27;840;-45
2023/10/20 00:24:47;;;;;;;4.93;3.67;;;;;;;11.63;62.36;93054.97;530531;27;1145;-46
2023/10/20 00:25:02;;;;;;;4.25;3.45;;;;;;;11.63;62.34;93057.72;530633;27;841;-44
2023/10/20 00:25:18;;;;;;;4.40;3.70;;;;;;;11.58;62.66;93055.94;530506;27;824;-45
2023/10/20 00:25:33;;;;;;;4.20;3.80;;;;;;;11.63;62.49;93066.03;530627;27;812;-45
2023/10/20 00:25:49;;;;;;;4.03;3.63;;;;;;;11.53;62.68;93047.84;530518;27;853;-45
2023/10/20 00:26:04;;;;;;;4.15;3.72;;;;;;;11.62;62.31;93059.03;530357;27;1210;-45
2023/10/20 00:26:20;;;;;;;5.10;3.57;;;;;;;11.40;62.50;93030.28;530498;27;888;-45
2023/10/20 00:26:35;;;;;;;5.37;3.40;;;;;;;11.59;62.53;93056.66;530533;27;830;-46
2023/10/20 00:26:50;;;;;;;4.63;3.45;;;;;;;11.55;62.54;93054.28;530598;27;844;-45
2023/10/20 00:27:06;;;;;;;4.07;3.50;;;;;;;11.57;62.83;93059.25;527088;28;1129;-46
2023/10/20 00:27:22;;;;;;;3.80;3.40;;;;;;;11.56;62.64;93053.00;526208;28;1044;-46
2023/10/20 00:27:43;;;;;;;3.97;3.35;;;;;;;11.54;62.76;93052.09;526194;28;884;-45
2023/10/20 00:27:58;;;;;;;4.72;3.75;;;;;;;11.56;62.70;93057.81;526104;28;948;-45
2023/10/20 00:28:14;;;;;;;4.43;3.53;;;;;;;11.55;62.70;93054.28;526175;28;1681;-47
2023/10/20 00:28:29;;;;;;;3.78;3.25;;;;;;;11.55;62.84;93051.53;526183;28;956;-45
2023/10/20 00:28:45;;;;;;;4.30;3.50;;;;;;;11.55;62.62;93057.06;526152;28;964;-45
2023/10/20 00:29:00;;;;;;;5.00;3.70;;;;;;;11.56;62.62;93061.31;527476;28;919;-45
2023/10/20 00:29:15;;;;;;;4.70;3.65;;;;;;;11.53;62.92;93042.34;528411;28;845;-47
2023/10/20 00:29:31;;;;;;;4.67;3.60;;;;;;;11.48;62.81;93046.78;528412;28;884;-45
2023/10/20 00:29:46;;;;;;;4.03;3.53;;;;;;;11.56;62.98;93053.00;528450;28;842;-45
2023/10/20 00:30:02;;;;;;;4.05;3.40;;;;;;;11.55;62.81;93056.31;528482;28;816;-44
2023/10/20 00:30:17;;;;;;;3.88;3.42;;;;;;;11.53;63.03;93053.38;528395;28;893;-45
2023/10/20 00:30:33;;;;;;;4.20;3.80;;;;;;;11.52;62.95;93065.75;528428;28;860;-45
2023/10/20 00:30:48;;;;;;;4.67;3.80;;;;;;;11.52;63.02;93058.19;528426;28;848;-45
2023/10/20 00:31:03;;;;;;;4.53;3.60;;;;;;;11.53;62.91;93058.91;528407;28;832;-45
2023/10/20 00:31:19;;;;;;;4.47;3.53;;;;;;;11.51;63.09;93056.72;528371;28;896;-46
2023/10/20 00:31:34;;;;;;;4.00;3.37;;;;;;;11.53;63.16;93056.16;528367;28;916;-44
2023/10/20 00:31:50;;;;;;;5.50;3.40;;;;;;;11.44;63.04;93047.19;528504;28;805;-45
2023/10/20 00:32:05;;;;;;;5.37;3.67;;;;;;;11.54;62.84;93054.88;528364;28;864;-46
2023/10/20 00:32:21;;;;;;;4.53;3.88;;;;;;;11.53;63.10;93059.66;528482;28;900;-44
2023/10/20 00:32:39;;;;;;;5.23;3.50;;;;;;;11.55;62.98;93062.59;528405;28;809;-44
2023/10/20 00:32:55;;;;;;;6.55;3.55;;;;;;;11.54;63.01;93058.38;526139;28;949;-45
2023/10/20 00:33:10;;;;;;;6.00;3.70;;;;;;;11.46;62.82;93043.84;526175;28;849;-45
2023/10/20 00:33:25;;;;;;;5.37;3.60;;;;;;;11.55;63.02;93056.31;526187;28;786;-45
2023/10/20 00:33:41;;;;;;;4.30;3.55;;;;;;;11.43;62.57;93040.19;526167;28;1051;-45
2023/10/20 00:33:56;;;;;;;4.43;3.77;;;;;;;11.52;62.74;93054.69;526140;28;908;-45
2023/10/20 00:34:12;;;;;;;5.53;4.07;;;;;;;11.54;62.98;93055.59;526211;28;809;-45
2023/10/20 00:34:27;;;;;;;5.37;4.13;;;;;;;11.54;62.96;93060.41;526120;28;849;-45
2023/10/20 00:34:42;;;;;;;4.77;4.00;;;;;;;11.51;62.82;93047.69;526891;28;888;-45
2023/10/20 00:34:58;;;;;;;4.20;3.47;;;;;;;11.54;62.98;93055.59;528412;28;975;-46
2023/10/20 00:35:13;;;;;;;4.17;3.27;;;;;;;11.54;62.86;93054.88;528323;28;797;-44
2023/10/20 00:35:29;;;;;;;7.35;4.00;;;;;;;11.54;62.71;93058.38;528477;28;860;-44
2023/10/20 00:35:44;;;;;;;7.33;4.07;;;;;;;11.53;62.69;93054.13;528417;28;1256;-45
2023/10/20 00:36:00;;;;;;;4.13;3.45;;;;;;;11.54;62.37;93055.59;528408;28;1019;-45
2023/10/20 00:36:17;;;;;;;4.70;3.67;;;;;;;11.54;62.58;93054.88;528326;28;865;-45
2023/10/20 00:36:32;;;;;;;4.65;3.72;;;;;;;11.53;62.34;93056.91;528445;28;960;-45
2023/10/20 00:36:47;;;;;;;6.00;3.70;;;;;;;11.51;62.38;93056.00;528254;28;1914;-45
2023/10/20 00:37:03;;;;;;;6.30;3.60;;;;;;;11.52;62.49;93051.94;528456;28;1592;-45
2023/10/20 00:37:20;;;;;;;4.88;3.83;;;;;;;11.54;62.56;93055.59;528365;28;833;-44
2023/10/20 00:37:36;;;;;;;5.70;3.95;;;;;;;11.52;62.63;93052.66;528405;28;931;-45
2023/10/20 00:37:51;;;;;;;5.25;3.75;;;;;;;11.28;62.38;93020.22;528423;28;997;-45
2023/10/20 00:38:06;;;;;;;4.27;3.70;;;;;;;11.30;62.38;93015.59;528448;28;843;-45
2023/10/20 00:38:22;;;;;;;4.83;3.70;;;;;;;11.52;62.21;93054.69;528462;28;793;-46
2023/10/20 00:38:37;;;;;;;5.43;4.00;;;;;;;11.53;62.03;93054.13;528349;28;944;-45
2023/10/20 00:38:53;;;;;;;5.03;3.87;;;;;;;11.51;62.04;93050.44;528383;28;912;-46
2023/10/20 00:39:09;;;;;;;4.85;3.75;;;;;;;11.50;61.89;93052.47;528427;28;828;-48
2023/10/20 00:39:24;;;;;;;6.55;4.07;;;;;;;11.45;62.04;93047.94;528348;28;967;-46
2023/10/20 00:39:40;;;;;;;6.27;4.30;;;;;;;11.41;62.29;93042.06;528475;28;883;-45
2023/10/20 00:39:55;;;;;;;5.20;4.22;;;;;;;11.49;62.00;93053.78;528385;28;856;-45
2023/10/20 00:40:12;;;;;;;5.70;4.13;;;;;;;11.38;62.07;93043.91;528445;28;813;-45
2023/10/20 00:40:27;;;;;;;5.70;4.15;;;;;;;11.46;61.96;93059.72;528379;28;1095;-45
2023/10/20 00:40:49;;;;;;;5.17;3.83;;;;;;;11.45;62.29;93053.47;528490;28;1023;-46
2023/10/20 00:41:04;;;;;;;6.22;3.88;;;;;;;11.44;62.10;93055.47;528363;28;884;-46
2023/10/20 00:41:20;;;;;;;6.60;4.37;;;;;;;11.40;62.30;93052.38;528457;28;949;-46
2023/10/20 00:41:36;;;;;;;5.18;4.30;;;;;;;11.42;62.16;93055.31;528401;28;857;-45
2023/10/20 00:41:51;;;;;;;5.78;4.63;;;;;;;11.41;62.05;93064.91;528405;28;995;-45
2023/10/20 00:42:07;;;;;;;6.20;4.80;;;;;;;11.41;62.29;93061.41;528369;28;927;-46
2023/10/20 00:42:23;;;;;;;5.55;4.53;;;;;;;11.40;62.38;93049.63;528451;28;895;-45
2023/10/20 00:42:38;;;;;;;5.32;4.35;;;;;;;11.40;62.07;93062.69;528367;28;974;-45
2023/10/20 00:42:54;;;;;;;4.67;4.10;;;;;;;11.40;62.26;93051.66;528500;28;782;-46
2023/10/20 00:43:09;;;;;;;4.20;3.75;;;;;;;11.40;62.28;93046.84;528346;28;908;-44
2023/10/20 00:43:35;;;;;;;5.37;3.90;;;;;;;11.41;62.04;93053.13;528398;28;872;-45
2023/10/20 00:43:50;;;;;;;5.40;3.90;;;;;;;11.41;62.12;93042.06;528347;28;955;-45
2023/10/20 00:44:06;;;;;;;6.13;4.60;;;;;;;11.31;61.80;93030.88;528365;28;852;-45
2023/10/20 00:44:21;;;;;;;5.82;4.60;;;;;;;11.41;62.12;93039.31;528477;28;824;-46
2023/10/20 00:44:37;;;;;;;5.03;4.13;;;;;;;11.40;62.30;93035.81;528401;28;911;-46
2023/10/20 00:44:53;;;;;;;4.80;4.10;;;;;;;11.40;62.00;93038.56;528486;28;821;-45
2023/10/20 00:45:09;;;;;;;5.57;3.95;;;;;;;11.42;62.22;93040.75;528343;28;963;-46
2023/10/20 00:45:24;;;;;;;5.75;4.10;;;;;;;11.41;62.28;93039.31;528288;28;1139;-45
2023/10/20 00:45:40;;;;;;;5.27;3.90;;;;;;;11.40;62.06;93040.59;528408;28;896;-45
2023/10/20 00:45:55;;;;;;;5.45;3.88;;;;;;;11.40;62.28;93037.81;528373;28;1085;-44
2023/10/20 00:46:11;;;;;;;4.97;4.00;;;;;;;11.26;61.90;93022.81;528371;28;871;-45
2023/10/20 00:46:26;;;;;;;6.07;4.27;;;;;;;11.16;62.08;93014.41;528331;28;932;-47
2023/10/20 00:46:45;;;;;;;7.03;4.35;;;;;;;11.38;62.27;93038.41;528480;28;848;-45
2023/10/20 00:47:00;;;;;;;5.53;4.20;;;;;;;11.31;62.47;93035.66;526177;28;846;-45
2023/10/20 00:47:16;;;;;;;4.57;4.03;;;;;;;11.35;62.24;93036.00;524060;28;821;-45
2023/10/20 00:47:32;;;;;;;5.70;4.18;;;;;;;11.36;62.37;93045.78;521981;28;980;-45
2023/10/20 00:47:48;;;;;;;5.88;4.20;;;;;;;11.36;62.49;93045.78;519896;28;881;-45
2023/10/20 00:48:05;;;;;;;5.60;4.13;;;;;;;11.35;62.49;93049.81;519979;28;865;-45
2023/10/20 00:48:22;;;;;;;6.13;4.40;;;;;;;11.33;62.75;93035.84;519958;28;1773;-45
2023/10/20 00:48:37;;;;;;;5.93;4.43;;;;;;;11.33;62.76;93046.91;519959;28;810;-46
2023/10/20 00:48:53;;;;;;;5.68;4.40;;;;;;;11.33;62.51;93044.13;521209;28;904;-45
2023/10/20 00:49:10;;;;;;;6.07;4.67;;;;;;;11.33;62.60;93052.41;523666;28;1106;-45
2023/10/20 00:49:26;;;;;;;6.15;5.00;;;;;;;11.32;62.71;93056.50;527220;28;887;-45
2023/10/20 00:49:41;;;;;;;6.00;5.23;;;;;;;11.30;62.55;93048.75;529473;27;1061;-45
2023/10/20 00:49:58;;;;;;;6.45;5.00;;;;;;;11.29;62.76;93049.31;528207;28;786;-44
2023/10/20 00:50:14;;;;;;;7.30;5.13;;;;;;;11.29;62.50;93054.84;528263;28;1671;-45
2023/10/20 00:50:30;;;;;;;8.35;5.95;;;;;;;11.27;62.66;93054.69;528174;28;1101;-45
2023/10/20 00:50:45;;;;;;;8.30;5.67;;;;;;;11.25;62.80;93058.00;528244;28;778;-45
2023/10/20 00:51:01;;;;;;;7.53;5.55;;;;;;;11.22;62.79;93052.88;526189;28;985;-46
2023/10/20 00:51:18;;;;;;;7.13;5.73;;;;;;;11.26;62.76;93059.47;526075;28;1003;-44
2023/10/20 00:51:33;;;;;;;7.55;5.55;;;;;;;11.27;62.53;93055.41;526204;28;892;-44
2023/10/20 00:51:49;;;;;;;7.35;5.43;;;;;;;11.27;62.33;93051.91;527030;28;952;-46
2023/10/20 00:52:06;;;;;;;6.20;5.23;;;;;;;11.28;62.57;93053.41;528227;28;908;-45
2023/10/20 00:52:22;;;;;;;8.88;5.57;;;;;;;11.27;62.68;93052.66;528334;28;856;-45
2023/10/20 00:52:40;;;;;;;11.40;5.78;;;;;;;11.28;62.46;93056.88;526088;28;928;-44
2023/10/20 00:52:55;;;;;;;9.43;5.75;;;;;;;11.30;62.51;93053.56;525329;28;912;-47
2023/10/20 00:53:11;;;;;;;7.13;5.67;;;;;;;11.29;62.45;93046.56;526156;28;1054;-45
2023/10/20 00:53:28;;;;;;;7.35;5.80;;;;;;;11.30;62.13;93048.75;526130;28;1163;-46
2023/10/20 00:53:43;;;;;;;9.88;5.68;;;;;;;11.30;62.32;93053.56;526290;28;1120;-45
2023/10/20 00:53:59;;;;;;;9.63;5.68;;;;;;;11.24;62.26;93042.72;526124;28;825;-45
2023/10/20 00:54:15;;;;;;;7.30;5.77;;;;;;;11.27;62.31;93049.16;526166;28;825;-45
2023/10/20 00:54:30;;;;;;;7.38;5.82;;;;;;;11.31;62.54;93057.78;527131;28;845;-46
2023/10/20 00:54:47;;;;;;;6.68;5.43;;;;;;;11.30;62.60;93051.50;528918;27;888;-45
2023/10/20 00:55:03;;;;;;;6.38;5.30;;;;;;;11.30;62.37;93051.50;528285;28;904;-45
2023/10/20 00:55:20;;;;;;;7.13;5.47;;;;;;;11.30;61.92;93048.75;528252;28;841;-45
2023/10/20 00:55:36;;;;;;;7.15;5.45;;;;;;;11.17;62.08;93035.22;528141;28;872;-45
2023/10/20 00:55:52;;;;;;;7.45;5.82;;;;;;;11.29;62.39;93058.34;528257;28;904;-46
2023/10/20 00:56:08;;;;;;;7.90;5.93;;;;;;;11.20;62.47;93039.63;528115;28;939;-45
2023/10/20 00:56:24;;;;;;;7.13;5.15;;;;;;;11.30;62.27;93056.31;528350;28;1533;-46
2023/10/20 00:56:42;;;;;;;7.47;5.07;;;;;;;11.30;62.08;93054.28;528340;28;891;-44
2023/10/20 00:56:57;;;;;;;7.80;5.82;;;;;;;11.30;62.18;93051.50;529746;27;833;-45
2023/10/20 00:57:16;;;;;;;8.02;6.03;;;;;;;11.30;62.04;93054.28;530529;27;873;-45
2023/10/20 00:57:32;;;;;;;9.50;6.40;;;;;;;11.28;62.37;93051.34;530556;27;884;-44
2023/10/20 00:57:47;;;;;;;8.10;6.00;;;;;;;11.30;62.17;93045.28;530472;27;840;-44
2023/10/20 00:58:03;;;;;;;6.03;5.23;;;;;;;11.22;62.06;93048.06;530538;27;970;-45
2023/10/20 00:58:18;;;;;;;6.65;5.55;;;;;;;11.28;62.43;93053.41;530473;27;840;-45
2023/10/20 00:58:34;;;;;;;7.93;5.73;;;;;;;11.30;62.21;93054.28;530529;27;884;-45
2023/10/20 00:58:49;;;;;;;7.63;5.35;;;;;;;11.30;62.26;93056.31;528208;28;912;-45
2023/10/20 00:59:04;;;;;;;6.17;5.27;;;;;;;11.30;62.22;93057.03;528195;28;1005;-45
2023/10/20 00:59:20;;;;;;;6.20;5.30;;;;;;;11.08;62.26;93015.75;528283;28;812;-46
2023/10/20 00:59:35;;;;;;;7.22;5.45;;;;;;;11.29;62.36;93055.59;528247;28;1205;-44
2023/10/20 00:59:51;;;;;;;7.17;5.43;;;;;;;11.28;62.14;93059.63;528295;28;812;-44
2023/10/20 01:00:09;;;;;;;6.47;5.00;;;;;;;11.27;62.16;93052.66;526523;28;1136;-45
2023/10/20 01:00:24;;;;;;;7.05;4.60;;;;;;;11.23;62.44;93046.78;526167;28;821;-45
2023/10/20 01:00:40;;;;;;;6.78;4.30;;;;;;;11.24;62.55;93051.00;526158;28;809;-45
2023/10/20 01:00:55;;;;;;;4.78;4.00;;;;;;;11.23;62.64;93049.56;526770;28;888;-44
2023/10/20 01:01:11;;;;;;;5.53;4.40;;;;;;;11.24;62.47;93055.81;528444;28;821;-45
2023/10/20 01:01:27;;;;;;;6.30;4.90;;;;;;;11.24;62.54;93053.78;528337;28;830;-45
2023/10/20 01:01:42;;;;;;;9.52;4.88;;;;;;;11.23;62.58;93044.03;528478;28;794;-45
2023/10/20 01:01:57;;;;;;;9.13;4.30;;;;;;;11.21;62.64;93041.09;528371;28;774;-45
2023/10/20 01:02:13;;;;;;;5.37;4.17;;;;;;;11.24;62.64;93047.53;528371;28;924;-45
2023/10/20 01:02:30;;;;;;;6.07;4.70;;;;;;;11.22;62.49;93042.53;528372;28;841;-45
2023/10/20 01:02:46;;;;;;;5.93;4.85;;;;;;;11.23;62.77;93044.03;528379;28;825;-45
2023/10/20 01:03:02;;;;;;;5.43;4.40;;;;;;;11.22;62.77;93050.09;528414;28;1055;-45
2023/10/20 01:03:17;;;;;;;5.25;4.13;;;;;;;11.20;62.62;93045.13;528310;28;1624;-45
2023/10/20 01:03:34;;;;;;;6.13;4.60;;;;;;;11.22;62.67;93041.81;528414;28;812;-44
2023/10/20 01:03:50;;;;;;;6.85;4.70;;;;;;;11.22;62.50;93047.34;528444;28;1079;-45
2023/10/20 01:04:05;;;;;;;5.40;4.30;;;;;;;11.21;62.76;93043.13;528324;28;897;-44
2023/10/20 01:04:21;;;;;;;6.28;4.65;;;;;;;11.21;62.74;93040.34;528433;28;814;-45
2023/10/20 01:04:36;;;;;;;7.60;5.10;;;;;;;11.04;62.79;93015.41;528342;28;889;-45
2023/10/20 01:04:51;;;;;;;6.43;5.07;;;;;;;11.20;62.46;93030.59;524064;28;2232;-44
2023/10/20 01:05:08;;;;;;;6.07;4.93;;;;;;;11.20;62.60;93036.13;523967;28;1233;-45
2023/10/20 01:05:24;;;;;;;5.75;4.55;;;;;;;11.20;62.80;93036.13;524072;28;913;-45
2023/10/20 01:05:39;;;;;;;5.97;4.73;;;;;;;11.20;62.88;93041.63;524037;28;810;-45
2023/10/20 01:05:55;;;;;;;5.93;4.85;;;;;;;11.18;62.70;93044.22;523982;28;1763;-46
2023/10/20 01:06:10;;;;;;;6.00;4.80;;;;;;;11.19;62.79;93038.16;522014;28;873;-45
2023/10/20 01:06:26;;;;;;;5.70;4.57;;;;;;;11.18;62.82;93042.22;521931;28;826;-45
2023/10/20 01:06:43;;;;;;;5.83;4.60;;;;;;;11.17;62.90;93040.75;523046;28;853;-45
2023/10/20 01:06:58;;;;;;;6.70;4.85;;;;;;;11.16;62.66;93039.28;526145;28;925;-46
2023/10/20 01:07:14;;;;;;;5.43;4.53;;;;;;;11.13;63.07;93034.88;526086;28;900;-45
2023/10/20 01:07:30;;;;;;;5.15;4.65;;;;;;;11.15;62.82;93037.09;526158;28;860;-45
2023/10/20 01:07:45;;;;;;;5.07;4.57;;;;;;;11.14;62.87;93041.13;526108;28;881;-46
2023/10/20 01:08:00;;;;;;;7.57;4.75;;;;;;;11.14;63.12;93035.59;526751;28;845;-44
2023/10/20 01:08:16;;;;;;;8.03;5.00;;;;;;;11.14;63.10;93035.59;528335;28;789;-46
2023/10/20 01:08:31;;;;;;;5.93;4.67;;;;;;;11.14;63.20;93041.13;528380;28;963;-46
2023/10/20 01:08:47;;;;;;;5.60;4.35;;;;;;;11.13;63.12;93036.91;528338;28;798;-46
2023/10/20 01:09:03;;;;;;;6.03;4.53;;;;;;;11.12;63.07;93038.19;528473;28;801;-44
2023/10/20 01:09:28;;;;;;;6.70;5.00;;;;;;;11.13;63.13;93037.63;528309;28;827;-46
2023/10/20 01:09:44;;;;;;;6.25;4.90;;;;;;;11.11;63.32;93034.69;528407;28;896;-46
2023/10/20 01:10:00;;;;;;;5.93;4.63;;;;;;;11.05;63.43;93019.63;528313;28;856;-45
2023/10/20 01:10:15;;;;;;;5.60;4.97;;;;;;;11.12;63.17;93036.19;528329;28;884;-46
2023/10/20 01:10:31;;;;;;;5.65;4.97;;;;;;;10.89;63.28;93005.22;528375;28;890;-44
2023/10/20 01:10:46;;;;;;;6.53;5.03;;;;;;;11.11;63.34;93042.28;528261;28;877;-45
2023/10/20 01:11:02;;;;;;;8.57;5.10;;;;;;;11.11;63.07;93042.28;528421;28;830;-46
2023/10/20 01:11:17;;;;;;;7.77;4.87;;;;;;;11.09;63.21;93042.06;528274;28;1554;-45
2023/10/20 01:11:32;;;;;;;6.63;5.00;;;;;;;11.09;63.31;93040.06;528205;28;860;-44
2023/10/20 01:11:48;;;;;;;6.68;4.97;;;;;;;11.10;62.98;93041.53;528213;28;805;-45
2023/10/20 01:12:03;;;;;;;5.77;4.73;;;;;;;11.08;63.00;93040.63;528371;28;1092;-45
2023/10/20 01:12:20;;;;;;;6.78;5.10;;;;;;;11.06;63.21;93040.44;528301;28;813;-46
2023/10/20 01:12:36;;;;;;;7.07;5.13;;;;;;;11.07;63.36;93041.91;528324;28;973;-46
2023/10/20 01:12:51;;;;;;;5.90;4.78;;;;;;;11.07;63.11;93050.19;528459;28;804;-45
2023/10/20 01:13:08;;;;;;;6.43;5.10;;;;;;;10.98;63.37;93034.25;528279;28;798;-45
2023/10/20 01:13:23;;;;;;;6.53;5.40;;;;;;;11.06;63.08;93045.97;528410;28;941;-45
2023/10/20 01:13:39;;;;;;;6.57;5.17;;;;;;;10.97;63.06;93030.75;528401;28;879;-45
2023/10/20 01:13:56;;;;;;;7.68;5.47;;;;;;;11.06;63.07;93040.44;528344;28;916;-44
2023/10/20 01:14:11;;;;;;;7.28;5.70;;;;;;;11.04;63.11;93038.25;528417;28;857;-46
2023/10/20 01:14:26;;;;;;;7.43;5.50;;;;;;;10.86;62.73;93005.56;528325;28;849;-46
2023/10/20 01:14:42;;;;;;;7.07;5.13;;;;;;;11.07;62.63;93033.63;528366;28;1668;-46
2023/10/20 01:14:59;;;;;;;6.38;5.20;;;;;;;11.07;62.81;93034.34;528333;28;916;-45
2023/10/20 01:15:16;;;;;;;7.85;5.80;;;;;;;11.04;62.69;93029.97;528370;28;924;-45
2023/10/20 01:15:31;;;;;;;7.15;4.80;;;;;;;11.06;62.68;93035.66;528336;28;1020;-45
2023/10/20 01:15:47;;;;;;;6.93;4.72;;;;;;;11.06;62.83;93040.44;528252;28;957;-46
2023/10/20 01:16:03;;;;;;;6.50;4.60;;;;;;;11.07;62.73;93036.38;526133;28;827;-45
2023/10/20 01:16:18;;;;;;;6.07;4.55;;;;;;;11.05;62.78;93033.44;526006;28;1023;-45
2023/10/20 01:16:34;;;;;;;5.33;4.47;;;;;;;11.05;62.49;93038.97;526177;28;857;-46
2023/10/20 01:16:49;;;;;;;5.15;4.50;;;;;;;11.05;62.84;93036.22;526010;28;1996;-45
2023/10/20 01:17:04;;;;;;;5.70;4.70;;;;;;;11.04;62.68;93034.75;526041;28;904;-45
2023/10/20 01:17:20;;;;;;;6.57;4.97;;;;;;;11.03;63.00;93038.81;526092;28;929;-46